createdAt,value
2018-06-30T00:00:19.857Z,98.20
2018-06-30T00:02:46.857Z,99.40
2018-06-30T00:05:13.841Z,99.90
2018-06-30T00:07:40.885Z,99.90
2018-06-30T00:10:07.898Z,99.90
2018-06-30T00:12:35.644Z,99.90
2018-06-30T00:15:02.680Z,99.90
2018-06-30T00:17:30.495Z,99.90
2018-06-30T00:19:57.535Z,99.90
2018-06-30T00:22:24.522Z,99.90
2018-06-30T00:27:18.623Z,99.90
2018-06-30T00:29:45.658Z,99.80
2018-06-30T00:32:12.677Z,99.00
2018-06-30T00:34:39.671Z,97.80
2018-06-30T00:37:07.637Z,98.50
2018-06-30T00:39:34.629Z,97.70
2018-06-30T00:42:01.624Z,97.10
2018-06-30T00:44:28.660Z,98.00
2018-06-30T00:46:55.658Z,98.10
2018-06-30T00:49:22.654Z,99.00
2018-06-30T00:51:49.683Z,98.90
2018-06-30T00:54:16.666Z,98.90
2018-06-30T00:56:43.671Z,98.90
2018-06-30T00:59:10.711Z,99.10
2018-06-30T01:01:37.714Z,98.80
2018-06-30T01:04:04.698Z,99.30
2018-06-30T01:06:31.751Z,99.80
2018-06-30T01:08:58.746Z,99.80
2018-06-30T01:14:06.031Z,99.10
2018-06-30T01:16:33.031Z,99.60
2018-06-30T01:19:00.030Z,98.80
2018-06-30T01:21:27.065Z,97.40
2018-06-30T01:23:54.069Z,98.60
2018-06-30T01:26:21.060Z,98.20
2018-06-30T01:28:48.124Z,99.00
2018-06-30T01:31:15.128Z,99.60
2018-06-30T01:36:09.285Z,99.90
2018-06-30T01:38:36.276Z,99.90
2018-06-30T01:43:30.402Z,99.90
2018-06-30T01:48:37.542Z,99.90
2018-06-30T01:51:04.547Z,99.60
2018-06-30T01:53:31.924Z,99.40
2018-06-30T01:55:58.956Z,98.90
2018-06-30T01:58:25.954Z,98.50
2018-06-30T02:00:52.957Z,98.30
2018-06-30T02:03:19.995Z,98.40
2018-06-30T02:05:46.998Z,98.80
2018-06-30T02:08:14.007Z,98.70
2018-06-30T02:10:41.753Z,99.80
2018-06-30T02:13:09.708Z,99.90
2018-06-30T02:15:36.707Z,99.90
2018-06-30T02:20:30.841Z,99.90
2018-06-30T02:22:57.855Z,99.90
2018-06-30T02:25:24.888Z,99.90
2018-06-30T02:27:51.876Z,99.90
2018-06-30T02:30:18.872Z,99.90
2018-06-30T02:32:45.923Z,99.90
2018-06-30T02:35:12.932Z,99.90
2018-06-30T02:37:39.931Z,99.90
2018-06-30T02:40:07.820Z,99.90
2018-06-30T02:42:34.815Z,99.90
2018-06-30T02:45:01.824Z,99.90
2018-06-30T02:47:28.849Z,99.90
2018-06-30T02:49:55.847Z,99.90
2018-06-30T02:52:22.848Z,99.90
2018-06-30T02:54:49.890Z,99.90
2018-06-30T02:57:16.952Z,99.90
2018-06-30T02:59:43.902Z,99.70
2018-06-30T03:02:10.939Z,99.90
2018-06-30T03:04:37.938Z,99.60
2018-06-30T03:09:44.277Z,99.30
2018-06-30T03:12:12.231Z,99.80
2018-06-30T03:14:39.220Z,98.90
2018-06-30T03:17:06.259Z,98.70
2018-06-30T03:19:33.256Z,98.40
2018-06-30T03:22:00.249Z,98.90
2018-06-30T03:24:27.282Z,99.30
2018-06-30T03:26:54.272Z,99.70
2018-06-30T03:29:21.271Z,99.50
2018-06-30T03:31:48.297Z,99.40
2018-06-30T03:34:15.296Z,99.90
2018-06-30T03:36:43.195Z,99.90
2018-06-30T03:39:10.228Z,99.90
2018-06-30T03:41:37.228Z,99.90
2018-06-30T03:44:04.226Z,99.90
2018-06-30T03:46:31.281Z,99.90
2018-06-30T03:48:58.276Z,99.90
2018-06-30T03:51:25.273Z,99.90
2018-06-30T03:53:52.293Z,99.90
2018-06-30T03:56:19.289Z,99.90
2018-06-30T03:58:46.283Z,99.90
2018-06-30T04:01:13.309Z,99.90
2018-06-30T04:06:07.434Z,99.90
2018-06-30T04:08:34.476Z,99.90
2018-06-30T04:11:01.483Z,99.90
2018-06-30T04:13:28.475Z,99.90
2018-06-30T04:15:55.510Z,99.90
2018-06-30T04:18:22.506Z,99.90
2018-06-30T04:20:49.500Z,99.90
2018-06-30T04:23:16.531Z,99.90
2018-06-30T04:25:43.529Z,99.90
2018-06-30T04:28:10.561Z,99.90
2018-06-30T04:30:37.630Z,99.90
2018-06-30T04:35:43.965Z,99.90
2018-06-30T04:38:10.967Z,99.90
2018-06-30T04:40:37.965Z,99.90
2018-06-30T04:43:04.996Z,99.90
2018-06-30T04:45:31.990Z,99.90
2018-06-30T04:47:58.988Z,99.90
2018-06-30T04:50:26.021Z,99.90
2018-06-30T04:52:53.009Z,99.90
2018-06-30T04:55:20.018Z,99.90
2018-06-30T04:57:47.053Z,99.00
2018-06-30T05:00:14.059Z,98.50
2018-06-30T05:02:41.875Z,99.50
2018-06-30T05:05:08.893Z,99.20
2018-06-30T05:07:35.893Z,99.50
2018-06-30T05:10:02.885Z,99.80
2018-06-30T05:12:29.909Z,99.00
2018-06-30T05:14:56.897Z,99.20
2018-06-30T05:17:23.881Z,99.80
2018-06-30T05:19:50.901Z,99.20
2018-06-30T05:22:17.893Z,98.90
2018-06-30T05:24:44.874Z,99.00
2018-06-30T05:27:11.914Z,99.80
2018-06-30T05:29:38.896Z,99.50
2018-06-30T05:32:05.877Z,98.60
2018-06-30T05:34:32.904Z,99.30
2018-06-30T05:36:59.899Z,99.70
2018-06-30T05:39:26.891Z,99.90
2018-06-30T05:41:53.924Z,99.90
2018-06-30T05:44:20.910Z,98.40
2018-06-30T05:49:15.020Z,99.20
2018-06-30T05:54:20.550Z,99.90
2018-06-30T05:56:48.499Z,99.80
2018-06-30T05:59:15.522Z,98.50
2018-06-30T06:01:42.529Z,98.20
2018-06-30T06:04:10.325Z,98.00
2018-06-30T06:06:37.349Z,98.40
2018-06-30T06:09:04.391Z,98.70
2018-06-30T06:11:31.398Z,98.40
2018-06-30T06:13:58.397Z,98.30
2018-06-30T06:16:25.432Z,97.90
2018-06-30T06:18:52.428Z,98.20
2018-06-30T06:21:19.425Z,98.20
2018-06-30T06:23:46.471Z,95.70
2018-06-30T06:26:13.475Z,92.10
2018-06-30T06:28:40.484Z,92.80
2018-06-30T06:31:07.515Z,86.30
2018-06-30T06:33:34.515Z,85.60
2018-06-30T06:36:01.517Z,86.30
2018-06-30T06:38:28.564Z,86.70
2018-06-30T06:40:55.567Z,83.60
2018-06-30T06:43:22.627Z,84.60
2018-06-30T06:45:49.658Z,82.00
2018-06-30T06:48:16.659Z,83.60
2018-06-30T06:50:43.651Z,78.50
2018-06-30T06:53:10.689Z,78.40
2018-06-30T06:55:37.681Z,82.10
2018-06-30T06:58:04.673Z,77.50
2018-06-30T07:00:31.725Z,77.50
2018-06-30T07:02:58.722Z,79.60
2018-06-30T07:05:25.728Z,73.80
2018-06-30T07:10:19.854Z,69.60
2018-06-30T07:15:25.388Z,73.20
2018-06-30T07:17:52.390Z,70.70
2018-06-30T07:20:19.391Z,66.90
2018-06-30T07:22:46.422Z,71.30
2018-06-30T07:25:13.431Z,63.10
2018-06-30T07:27:40.434Z,69.10
2018-06-30T07:30:07.486Z,68.30
2018-06-30T07:32:34.471Z,63.20
2018-06-30T07:35:01.477Z,63.10
2018-06-30T07:37:28.542Z,61.40
2018-06-30T07:39:55.495Z,63.80
2018-06-30T07:42:22.497Z,59.40
2018-06-30T07:44:49.527Z,62.90
2018-06-30T07:47:16.537Z,62.30
2018-06-30T07:49:43.531Z,60.50
2018-06-30T07:52:11.427Z,58.60
2018-06-30T07:54:38.461Z,54.00
2018-06-30T07:57:05.475Z,54.20
2018-06-30T07:59:32.507Z,50.60
2018-06-30T08:04:26.612Z,51.90
2018-06-30T08:06:53.624Z,48.70
2018-06-30T08:14:50.359Z,43.70
2018-06-30T08:17:17.373Z,39.70
2018-06-30T08:19:44.377Z,36.00
2018-06-30T08:22:11.445Z,33.80
2018-06-30T08:24:39.381Z,31.90
2018-06-30T08:29:45.347Z,28.60
2018-06-30T08:32:12.340Z,27.10
2018-06-30T08:34:39.341Z,27.30
2018-06-30T08:37:06.384Z,27.00
2018-06-30T08:39:33.378Z,23.10
2018-06-30T08:42:00.378Z,24.40
2018-06-30T08:44:27.508Z,24.00
2018-06-30T08:46:54.469Z,21.10
2018-06-30T08:49:21.539Z,22.70
2018-06-30T08:51:48.590Z,20.10
2018-06-30T08:54:15.595Z,20.40
2018-06-30T08:56:42.610Z,20.00
2018-06-30T08:59:09.667Z,19.70
2018-06-30T09:01:36.714Z,17.60
2018-06-30T09:04:03.728Z,19.20
2018-06-30T09:06:31.755Z,20.10
2018-06-30T09:08:58.732Z,19.20
2018-06-30T09:11:25.735Z,17.10
2018-06-30T09:13:52.804Z,17.60
2018-06-30T09:16:19.817Z,17.30
2018-06-30T09:18:47.797Z,19.00
2018-06-30T09:21:15.362Z,15.20
2018-06-30T09:23:42.390Z,17.40
2018-06-30T09:26:09.948Z,16.80
2018-06-30T09:28:37.941Z,19.90
2018-06-30T09:31:04.959Z,18.30
2018-06-30T09:33:31.990Z,18.60
2018-06-30T09:35:59.077Z,17.70
2018-06-30T09:38:27.084Z,17.60
2018-06-30T09:40:54.130Z,16.50
2018-06-30T09:48:27.257Z,15.80
2018-06-30T09:53:21.390Z,17.60
2018-06-30T09:55:48.442Z,18.20
2018-06-30T09:58:16.933Z,15.30
2018-06-30T10:00:43.945Z,15.50
2018-06-30T10:03:11.005Z,14.70
2018-06-30T10:05:38.030Z,15.20
2018-06-30T10:08:05.045Z,11.50
2018-06-30T10:17:54.084Z,8.60
2018-06-30T10:20:21.114Z,9.40
2018-06-30T10:22:48.437Z,10.30
2018-06-30T10:25:16.529Z,11.40
2018-06-30T10:27:43.813Z,9.20
2018-06-30T10:30:11.779Z,9.60
2018-06-30T10:32:40.119Z,7.90
2018-06-30T10:35:07.315Z,7.50
2018-06-30T10:37:34.356Z,7.40
2018-06-30T10:40:01.380Z,7.50
2018-06-30T10:42:28.674Z,9.70
2018-06-30T10:44:55.691Z,8.40
2018-06-30T10:50:02.050Z,4.70
2018-06-30T10:52:29.142Z,4.80
2018-06-30T10:54:56.156Z,5.30
2018-06-30T10:57:23.178Z,6.90
2018-06-30T10:59:50.245Z,7.90
2018-06-30T11:02:17.665Z,7.30
2018-06-30T11:04:44.740Z,5.30
2018-06-30T11:07:12.265Z,6.10
2018-06-30T11:09:39.299Z,4.40
2018-06-30T11:12:06.313Z,5.60
2018-06-30T11:14:33.576Z,5.60
2018-06-30T11:17:00.584Z,4.60
2018-06-30T11:19:27.610Z,4.40
2018-06-30T11:21:54.670Z,4.30
2018-06-30T11:24:21.695Z,3.60
2018-06-30T11:29:16.416Z,5.60
2018-06-30T11:31:43.421Z,6.70
2018-06-30T11:34:10.470Z,7.00
2018-06-30T11:36:37.530Z,6.70
2018-06-30T11:39:04.552Z,7.10
2018-06-30T11:41:32.219Z,5.50
2018-06-30T11:43:59.269Z,6.60
2018-06-30T11:46:26.330Z,7.20
2018-06-30T11:48:53.352Z,7.50
2018-06-30T11:51:20.401Z,7.00
2018-06-30T11:53:47.977Z,7.00
2018-06-30T11:56:15.194Z,5.50
2018-06-30T11:58:42.793Z,7.70
2018-06-30T12:01:09.817Z,6.70
2018-06-30T12:03:37.401Z,7.50
2018-06-30T12:06:04.442Z,7.10
2018-06-30T12:08:31.481Z,7.90
2018-06-30T12:10:58.533Z,7.30
2018-06-30T12:13:25.583Z,8.30
2018-06-30T12:18:34.661Z,6.70
2018-06-30T12:21:01.867Z,7.60
2018-06-30T12:23:28.869Z,8.90
2018-06-30T12:25:55.925Z,9.50
2018-06-30T12:28:22.960Z,9.70
2018-06-30T12:30:49.985Z,9.80
2018-06-30T12:33:17.041Z,10.00
2018-06-30T12:35:44.069Z,9.20
2018-06-30T12:40:38.213Z,7.80
2018-06-30T12:43:05.417Z,9.30
2018-06-30T12:45:32.662Z,8.50
2018-06-30T12:47:59.812Z,9.30
2018-06-30T12:50:26.817Z,9.10
2018-06-30T12:52:53.953Z,8.50
2018-06-30T12:55:20.993Z,8.50
2018-06-30T12:57:48.012Z,9.10
2018-06-30T13:00:15.031Z,7.30
2018-06-30T13:02:42.738Z,7.20
2018-06-30T13:05:09.762Z,7.00
2018-06-30T13:07:36.777Z,8.10
2018-06-30T13:10:03.842Z,7.50
2018-06-30T13:12:30.869Z,7.40
2018-06-30T13:14:58.759Z,6.70
2018-06-30T13:20:05.112Z,7.10
2018-06-30T13:22:32.169Z,8.00
2018-06-30T13:27:26.277Z,8.90
2018-06-30T13:29:53.325Z,9.60
2018-06-30T13:32:20.351Z,8.80
2018-06-30T13:34:47.363Z,9.80
2018-06-30T13:37:15.370Z,9.90
2018-06-30T13:42:10.529Z,9.50
2018-06-30T13:44:37.935Z,9.70
2018-06-30T13:47:05.283Z,8.90
2018-06-30T13:49:32.289Z,10.00
2018-06-30T13:51:59.347Z,11.20
2018-06-30T13:54:26.376Z,10.50
2018-06-30T13:56:53.420Z,9.80
2018-06-30T13:59:20.563Z,10.00
2018-06-30T14:01:47.599Z,10.60
2018-06-30T14:04:15.205Z,11.40
2018-06-30T14:06:42.937Z,11.50
2018-06-30T14:09:09.953Z,12.50
2018-06-30T14:11:36.985Z,13.30
2018-06-30T14:16:31.225Z,13.50
2018-06-30T14:18:58.982Z,13.50
2018-06-30T14:21:26.042Z,13.20
2018-06-30T14:23:54.009Z,12.90
2018-06-30T14:26:21.364Z,13.20
2018-06-30T14:28:49.439Z,13.00
2018-06-30T14:31:16.445Z,13.10
2018-06-30T14:36:21.533Z,11.80
2018-06-30T14:38:48.539Z,11.90
2018-06-30T14:41:15.683Z,12.40
2018-06-30T14:46:10.178Z,13.10
2018-06-30T14:48:39.158Z,12.40
2018-06-30T14:51:04.792Z,13.10
2018-06-30T14:53:31.821Z,12.50
2018-06-30T14:55:58.861Z,13.20
2018-06-30T15:00:53.063Z,13.80
2018-06-30T15:03:20.624Z,13.60
2018-06-30T15:08:14.805Z,13.10
2018-06-30T15:10:41.861Z,13.10
2018-06-30T15:13:08.933Z,13.90
2018-06-30T15:15:36.852Z,13.70
2018-06-30T15:18:03.934Z,13.70
2018-06-30T15:20:31.003Z,13.90
2018-06-30T15:22:58.028Z,13.50
2018-06-30T15:25:25.060Z,13.30
2018-06-30T15:27:52.335Z,13.40
2018-06-30T15:30:19.409Z,13.40
2018-06-30T15:32:46.390Z,13.40
2018-06-30T15:35:13.481Z,13.30
2018-06-30T15:37:40.517Z,13.30
2018-06-30T15:40:07.702Z,13.30
2018-06-30T15:42:34.819Z,13.40
2018-06-30T15:45:01.806Z,12.70
2018-06-30T15:47:28.828Z,13.80
2018-06-30T15:49:55.916Z,13.90
2018-06-30T15:52:22.939Z,14.00
2018-06-30T15:54:49.965Z,14.30
2018-06-30T15:59:55.770Z,14.30
2018-06-30T16:02:22.851Z,14.30
2018-06-30T16:04:49.885Z,14.60
2018-06-30T16:07:16.922Z,14.20
2018-06-30T16:12:11.234Z,14.70
2018-06-30T16:14:39.213Z,14.40
2018-06-30T16:17:06.297Z,14.30
2018-06-30T16:19:34.233Z,14.50
2018-06-30T16:22:01.249Z,14.40
2018-06-30T16:24:29.232Z,14.30
2018-06-30T16:26:56.243Z,14.60
2018-06-30T16:29:23.395Z,14.50
2018-06-30T16:31:50.446Z,14.60
2018-06-30T16:34:17.471Z,14.60
2018-06-30T16:36:44.495Z,14.60
2018-06-30T16:39:11.544Z,14.70
2018-06-30T16:41:38.566Z,14.90
2018-06-30T16:44:05.629Z,15.00
2018-06-30T16:46:32.689Z,14.40
2018-06-30T16:48:59.754Z,14.70
2018-06-30T16:51:26.742Z,14.80
2018-06-30T16:53:53.789Z,15.10
2018-06-30T16:56:20.808Z,15.20
2018-06-30T17:03:43.222Z,15.20
2018-06-30T17:06:10.740Z,15.00
2018-06-30T17:08:37.745Z,14.90
2018-06-30T17:13:43.309Z,14.70
2018-06-30T17:16:10.766Z,15.00
2018-06-30T17:18:37.790Z,15.30
2018-06-30T17:21:04.866Z,15.30
2018-06-30T17:23:31.990Z,15.20
2018-06-30T17:25:59.022Z,15.10
2018-06-30T17:28:26.072Z,15.50
2018-06-30T17:30:53.087Z,15.50
2018-06-30T17:33:20.114Z,15.30
2018-06-30T17:35:47.206Z,15.20
2018-06-30T17:38:14.433Z,15.60
2018-06-30T17:40:41.500Z,15.70
2018-06-30T17:43:08.553Z,15.70
2018-06-30T17:45:35.609Z,16.00
2018-06-30T17:48:02.645Z,16.00
2018-06-30T17:50:30.403Z,16.00
2018-06-30T17:52:58.107Z,16.10
2018-06-30T17:58:04.389Z,16.20
2018-06-30T18:00:31.369Z,15.90
2018-06-30T18:02:58.493Z,16.00
2018-06-30T18:05:25.533Z,16.00
2018-06-30T18:12:46.866Z,16.70
2018-06-30T18:15:13.904Z,16.70
2018-06-30T18:17:40.942Z,17.00
2018-06-30T18:22:48.759Z,16.20
2018-06-30T18:25:15.761Z,16.80
2018-06-30T18:27:43.826Z,16.90
2018-06-30T18:30:11.105Z,16.90
2018-06-30T18:32:37.935Z,17.10
2018-06-30T18:35:05.049Z,17.20
2018-06-30T18:37:32.089Z,17.60
2018-06-30T18:39:59.162Z,17.50
2018-06-30T18:42:26.166Z,17.70
2018-06-30T18:44:53.211Z,18.00
2018-06-30T18:47:20.671Z,18.10
2018-06-30T18:52:23.271Z,18.60
2018-06-30T18:59:59.054Z,18.90
2018-06-30T19:10:02.773Z,18.80
2018-06-30T19:12:30.653Z,19.10
2018-06-30T19:14:57.655Z,19.50
2018-06-30T19:17:24.726Z,21.20
2018-06-30T19:19:51.735Z,20.00
2018-06-30T19:22:19.764Z,19.90
2018-06-30T19:24:47.888Z,19.80
2018-06-30T19:29:55.522Z,19.70
2018-06-30T19:32:22.652Z,21.00
2018-06-30T19:34:51.849Z,20.90
2018-06-30T19:39:57.036Z,21.00
2018-06-30T19:42:24.985Z,21.50
2018-06-30T19:44:52.642Z,21.50
2018-06-30T19:47:22.604Z,20.90
2018-06-30T19:49:50.281Z,21.50
2018-06-30T19:52:17.313Z,21.80
2018-06-30T19:54:52.672Z,22.60
2018-06-30T19:57:22.190Z,23.90
2018-06-30T19:59:50.529Z,24.20
2018-06-30T20:02:18.754Z,25.80
2018-06-30T20:04:46.651Z,26.10
2018-06-30T20:10:02.567Z,27.20
2018-06-30T20:12:31.256Z,25.80
2018-06-30T20:22:57.450Z,26.40
2018-06-30T20:28:00.310Z,24.10
2018-06-30T20:30:26.065Z,25.00
2018-06-30T20:32:53.043Z,25.50
2018-06-30T20:35:20.074Z,27.20
2018-06-30T20:37:47.554Z,26.80
2018-06-30T20:42:55.031Z,28.30
2018-06-30T20:45:22.177Z,28.50
2018-06-30T20:50:39.274Z,29.00
2018-06-30T20:58:27.541Z,32.10
2018-06-30T21:00:54.620Z,31.80
2018-06-30T21:06:08.269Z,32.90
2018-06-30T21:08:35.279Z,32.50
2018-06-30T21:18:23.708Z,32.30
2018-06-30T21:20:50.757Z,32.30
2018-06-30T21:23:17.745Z,32.20
2018-06-30T21:25:44.738Z,33.00
2018-06-30T21:28:11.785Z,34.60
2018-06-30T21:30:38.811Z,34.00
2018-06-30T21:33:14.457Z,34.50
2018-06-30T21:35:41.485Z,35.80
2018-06-30T21:38:13.402Z,36.50
2018-06-30T21:40:37.911Z,35.80
2018-06-30T21:52:01.370Z,37.10
2018-06-30T21:54:34.402Z,37.60
2018-06-30T21:57:01.757Z,38.00
2018-06-30T21:59:28.736Z,39.00
2018-06-30T22:01:56.391Z,37.60
2018-06-30T22:04:27.150Z,38.30
2018-06-30T22:09:35.534Z,38.10
2018-06-30T22:12:02.618Z,37.60
2018-06-30T22:17:11.472Z,38.00
2018-06-30T22:19:41.997Z,38.50
2018-06-30T22:22:08.629Z,39.80
2018-06-30T22:24:35.722Z,39.40
2018-06-30T22:27:09.473Z,41.70
2018-06-30T22:29:32.510Z,40.10
2018-06-30T22:31:59.585Z,41.10
2018-06-30T22:34:27.561Z,41.20
2018-06-30T22:36:55.164Z,41.10
2018-06-30T22:39:23.087Z,41.20
2018-06-30T22:41:50.112Z,43.10
2018-06-30T22:44:17.140Z,45.00
2018-06-30T22:49:12.178Z,52.80
2018-06-30T22:51:40.011Z,52.60
2018-06-30T22:54:07.914Z,52.20
2018-06-30T22:56:34.925Z,51.10
2018-06-30T23:01:40.146Z,50.00
2018-06-30T23:04:07.172Z,51.00
2018-06-30T23:06:35.568Z,49.60
2018-06-30T23:09:03.471Z,50.00
2018-06-30T23:11:30.995Z,55.50
2018-06-30T23:13:58.026Z,61.90
2018-06-30T23:16:25.398Z,64.80
2018-06-30T23:21:31.880Z,67.30
2018-06-30T23:23:59.878Z,69.70
2018-06-30T23:26:27.106Z,70.70
2018-06-30T23:28:55.101Z,70.30
2018-06-30T23:31:23.092Z,70.60
2018-06-30T23:33:50.120Z,70.80
2018-06-30T23:36:18.153Z,71.20
2018-06-30T23:38:46.141Z,72.70
2018-06-30T23:41:13.158Z,73.70
2018-06-30T23:43:40.210Z,73.30
2018-06-30T23:46:07.233Z,73.20
2018-06-30T23:48:34.276Z,71.90
2018-06-30T23:51:02.206Z,71.90
2018-06-30T23:53:29.228Z,71.30
2018-06-30T23:55:56.261Z,71.20
2018-06-30T23:58:23.339Z,68.20
